sensor_id;sensor_type;location;lat;lon;timestamp;pressure;altitude;pressure_sealevel;temperature;humidity
62436;BME280;48480;50.252;18.848;2022-09-09T00:04:03;98363.08;;;18.04;86.53
62436;BME280;48480;50.252;18.848;2022-09-09T00:06:42;98356.77;;;18.03;86.46
62436;BME280;48480;50.252;18.848;2022-09-09T00:09:16;98356.23;;;18.02;86.29
62436;BME280;48480;50.252;18.848;2022-09-09T00:11:43;98359.55;;;18.01;86.28
62436;BME280;48480;50.252;18.848;2022-09-09T00:23:00;98366.97;;;17.88;86.57
62436;BME280;48480;50.252;18.848;2022-09-09T00:25:36;98362.80;;;17.88;86.69
62436;BME280;48480;50.252;18.848;2022-09-09T00:28:13;98365.30;;;17.90;86.57
62436;BME280;48480;50.252;18.848;2022-09-09T00:30:44;98366.23;;;17.92;86.49
62436;BME280;48480;50.252;18.848;2022-09-09T00:33:17;98366.47;;;17.92;85.96
62436;BME280;48480;50.252;18.848;2022-09-09T00:35:49;98365.51;;;17.89;85.85
62436;BME280;48480;50.252;18.848;2022-09-09T00:40:58;98362.97;;;17.77;86.20
62436;BME280;48480;50.252;18.848;2022-09-09T00:43:39;98363.96;;;17.76;86.08
62436;BME280;48480;50.252;18.848;2022-09-09T00:49:05;98363.52;;;17.72;85.87
62436;BME280;48480;50.252;18.848;2022-09-09T00:51:44;98371.48;;;17.70;85.77
62436;BME280;48480;50.252;18.848;2022-09-09T00:59:48;98382.45;;;17.68;85.78
62436;BME280;48480;50.252;18.848;2022-09-09T01:05:04;98389.69;;;17.60;85.67
62436;BME280;48480;50.252;18.848;2022-09-09T01:07:33;98391.14;;;17.58;85.89
62436;BME280;48480;50.252;18.848;2022-09-09T01:10:05;98391.17;;;17.56;85.95
62436;BME280;48480;50.252;18.848;2022-09-09T01:12:46;98392.00;;;17.55;85.92
62436;BME280;48480;50.252;18.848;2022-09-09T01:15:19;98390.29;;;17.54;85.88
62436;BME280;48480;50.252;18.848;2022-09-09T01:18:00;98392.89;;;17.52;85.97
62436;BME280;48480;50.252;18.848;2022-09-09T01:20:53;98394.43;;;17.46;85.88
62436;BME280;48480;50.252;18.848;2022-09-09T01:26:35;98401.20;;;17.39;85.99
62436;BME280;48480;50.252;18.848;2022-09-09T01:29:08;98403.81;;;17.38;85.71
62436;BME280;48480;50.252;18.848;2022-09-09T01:34:20;98402.71;;;17.32;85.84
62436;BME280;48480;50.252;18.848;2022-09-09T01:37:02;98403.81;;;17.29;85.99
62436;BME280;48480;50.252;18.848;2022-09-09T01:39:35;98400.02;;;17.24;86.15
62436;BME280;48480;50.252;18.848;2022-09-09T01:42:02;98405.20;;;17.19;86.28
62436;BME280;48480;50.252;18.848;2022-09-09T01:44:30;98409.30;;;17.19;86.46
62436;BME280;48480;50.252;18.848;2022-09-09T01:46:57;98408.48;;;17.21;86.47
62436;BME280;48480;50.252;18.848;2022-09-09T01:49:24;98413.00;;;17.23;86.28
62436;BME280;48480;50.252;18.848;2022-09-09T01:51:54;98414.02;;;17.24;86.33
62436;BME280;48480;50.252;18.848;2022-09-09T01:54:23;98414.50;;;17.24;86.20
62436;BME280;48480;50.252;18.848;2022-09-09T02:00:00;98412.57;;;17.21;86.39
62436;BME280;48480;50.252;18.848;2022-09-09T02:02:58;98406.08;;;17.12;86.32
62436;BME280;48480;50.252;18.848;2022-09-09T02:05:36;98412.95;;;17.15;86.61
62436;BME280;48480;50.252;18.848;2022-09-09T02:08:09;98414.11;;;17.16;86.38
62436;BME280;48480;50.252;18.848;2022-09-09T02:10:46;98416.61;;;17.17;86.31
62436;BME280;48480;50.252;18.848;2022-09-09T02:13:18;98418.48;;;17.17;86.24
62436;BME280;48480;50.252;18.848;2022-09-09T02:16:07;98421.61;;;17.14;86.32
62436;BME280;48480;50.252;18.848;2022-09-09T02:18:43;98426.67;;;17.12;86.24
62436;BME280;48480;50.252;18.848;2022-09-09T02:21:12;98424.32;;;17.10;85.95
62436;BME280;48480;50.252;18.848;2022-09-09T02:23:42;98427.36;;;17.10;86.02
62436;BME280;48480;50.252;18.848;2022-09-09T02:26:10;98428.83;;;17.11;85.80
62436;BME280;48480;50.252;18.848;2022-09-09T02:28:38;98430.31;;;17.12;85.50
62436;BME280;48480;50.252;18.848;2022-09-09T02:31:06;98432.16;;;17.11;85.54
62436;BME280;48480;50.252;18.848;2022-09-09T02:33:37;98439.39;;;17.09;85.66
62436;BME280;48480;50.252;18.848;2022-09-09T02:36:06;98446.70;;;17.07;85.99
62436;BME280;48480;50.252;18.848;2022-09-09T02:38:37;98445.25;;;17.03;85.97
62436;BME280;48480;50.252;18.848;2022-09-09T02:41:06;98440.37;;;17.03;85.80
62436;BME280;48480;50.252;18.848;2022-09-09T02:43:33;98440.69;;;17.03;85.45
62436;BME280;48480;50.252;18.848;2022-09-09T02:46:18;98441.05;;;17.03;85.40
62436;BME280;48480;50.252;18.848;2022-09-09T02:49:08;98436.43;;;16.99;85.52
62436;BME280;48480;50.252;18.848;2022-09-09T02:52:01;98450.92;;;17.00;85.04
62436;BME280;48480;50.252;18.848;2022-09-09T02:54:33;98448.53;;;16.97;84.97
62436;BME280;48480;50.252;18.848;2022-09-09T02:57:07;98452.81;;;16.94;84.88
62436;BME280;48480;50.252;18.848;2022-09-09T02:59:36;98453.70;;;16.92;84.94
62436;BME280;48480;50.252;18.848;2022-09-09T03:02:04;98454.04;;;16.93;84.91
62436;BME280;48480;50.252;18.848;2022-09-09T03:04:31;98452.18;;;16.93;84.60
62436;BME280;48480;50.252;18.848;2022-09-09T03:06:58;98455.98;;;16.94;84.50
62436;BME280;48480;50.252;18.848;2022-09-09T03:09:25;98458.45;;;16.93;84.61
62436;BME280;48480;50.252;18.848;2022-09-09T03:11:52;98458.59;;;16.88;84.36
62436;BME280;48480;50.252;18.848;2022-09-09T03:14:18;98459.75;;;16.85;84.21
62436;BME280;48480;50.252;18.848;2022-09-09T03:16:47;98464.33;;;16.79;84.50
62436;BME280;48480;50.252;18.848;2022-09-09T03:19:14;98464.30;;;16.73;84.37
62436;BME280;48480;50.252;18.848;2022-09-09T03:21:40;98467.94;;;16.70;84.26
62436;BME280;48480;50.252;18.848;2022-09-09T03:24:07;98465.02;;;16.71;84.32
62436;BME280;48480;50.252;18.848;2022-09-09T03:26:33;98458.25;;;16.69;84.06
62436;BME280;48480;50.252;18.848;2022-09-09T03:29:00;98466.41;;;16.71;84.08
62436;BME280;48480;50.252;18.848;2022-09-09T03:31:26;98471.80;;;16.66;84.13
62436;BME280;48480;50.252;18.848;2022-09-09T03:33:59;98470.46;;;16.61;84.07
62436;BME280;48480;50.252;18.848;2022-09-09T03:36:26;98479.03;;;16.56;84.20
62436;BME280;48480;50.252;18.848;2022-09-09T03:38:53;98457.80;;;16.40;84.12
62436;BME280;48480;50.252;18.848;2022-09-09T03:41:24;98477.38;;;16.51;84.14
62436;BME280;48480;50.252;18.848;2022-09-09T03:43:55;98480.05;;;16.50;84.16
62436;BME280;48480;50.252;18.848;2022-09-09T03:46:24;98485.20;;;16.48;84.06
62436;BME280;48480;50.252;18.848;2022-09-09T03:48:50;98485.66;;;16.44;84.13
62436;BME280;48480;50.252;18.848;2022-09-09T03:51:18;98486.04;;;16.41;84.12
62436;BME280;48480;50.252;18.848;2022-09-09T03:53:45;98484.70;;;16.33;84.26
62436;BME280;48480;50.252;18.848;2022-09-09T03:56:13;98485.27;;;16.27;84.42
62436;BME280;48480;50.252;18.848;2022-09-09T03:58:39;98485.17;;;16.27;84.61
62436;BME280;48480;50.252;18.848;2022-09-09T04:01:09;98491.17;;;16.28;84.58
62436;BME280;48480;50.252;18.848;2022-09-09T04:03:36;98494.71;;;16.31;84.25
62436;BME280;48480;50.252;18.848;2022-09-09T04:06:04;98491.05;;;16.32;84.25
62436;BME280;48480;50.252;18.848;2022-09-09T04:08:33;98486.21;;;16.31;83.99
62436;BME280;48480;50.252;18.848;2022-09-09T04:11:00;98489.41;;;16.26;83.89
62436;BME280;48480;50.252;18.848;2022-09-09T04:13:33;98493.61;;;16.19;83.73
62436;BME280;48480;50.252;18.848;2022-09-09T04:16:01;98492.10;;;16.14;83.86
62436;BME280;48480;50.252;18.848;2022-09-09T04:18:30;98491.09;;;16.14;83.49
62436;BME280;48480;50.252;18.848;2022-09-09T04:20:57;98493.27;;;16.14;83.41
62436;BME280;48480;50.252;18.848;2022-09-09T04:23:25;98498.36;;;16.15;83.61
62436;BME280;48480;50.252;18.848;2022-09-09T04:25:53;98497.70;;;16.16;83.67
62436;BME280;48480;50.252;18.848;2022-09-09T04:28:22;98498.30;;;16.15;83.81
62436;BME280;48480;50.252;18.848;2022-09-09T04:30:49;98495.48;;;16.11;83.84
62436;BME280;48480;50.252;18.848;2022-09-09T04:33:16;98493.10;;;16.08;84.10
62436;BME280;48480;50.252;18.848;2022-09-09T04:35:45;98493.73;;;16.02;84.10
62436;BME280;48480;50.252;18.848;2022-09-09T04:38:13;98497.96;;;16.01;84.26
62436;BME280;48480;50.252;18.848;2022-09-09T04:40:43;98495.69;;;16.03;84.11
62436;BME280;48480;50.252;18.848;2022-09-09T04:43:09;98496.09;;;16.07;84.18
62436;BME280;48480;50.252;18.848;2022-09-09T04:45:36;98492.84;;;16.10;84.02
62436;BME280;48480;50.252;18.848;2022-09-09T04:48:03;98497.63;;;16.09;84.25
62436;BME280;48480;50.252;18.848;2022-09-09T04:50:30;98498.34;;;16.10;84.25
62436;BME280;48480;50.252;18.848;2022-09-09T04:53:00;98506.02;;;16.08;84.31
62436;BME280;48480;50.252;18.848;2022-09-09T04:55:27;98502.36;;;16.07;84.19
62436;BME280;48480;50.252;18.848;2022-09-09T04:57:53;98505.18;;;16.09;84.26
62436;BME280;48480;50.252;18.848;2022-09-09T05:00:20;98508.34;;;16.11;84.19
62436;BME280;48480;50.252;18.848;2022-09-09T05:02:46;98509.04;;;16.14;84.27
62436;BME280;48480;50.252;18.848;2022-09-09T05:05:13;98505.42;;;16.19;84.35
62436;BME280;48480;50.252;18.848;2022-09-09T05:07:40;98504.21;;;16.20;84.26
62436;BME280;48480;50.252;18.848;2022-09-09T05:10:08;98503.29;;;16.20;84.32
62436;BME280;48480;50.252;18.848;2022-09-09T05:12:34;98502.55;;;16.15;84.42
62436;BME280;48480;50.252;18.848;2022-09-09T05:15:00;98510.60;;;16.19;84.51
62436;BME280;48480;50.252;18.848;2022-09-09T05:17:27;98518.60;;;16.20;84.41
62436;BME280;48480;50.252;18.848;2022-09-09T05:19:54;98520.65;;;16.22;84.26
62436;BME280;48480;50.252;18.848;2022-09-09T05:22:21;98521.30;;;16.23;84.35
62436;BME280;48480;50.252;18.848;2022-09-09T05:24:49;98527.98;;;16.25;84.46
62436;BME280;48480;50.252;18.848;2022-09-09T05:27:19;98533.27;;;16.26;84.59
62436;BME280;48480;50.252;18.848;2022-09-09T05:29:46;98534.73;;;16.26;84.74
62436;BME280;48480;50.252;18.848;2022-09-09T05:32:12;98525.36;;;16.21;84.95
62436;BME280;48480;50.252;18.848;2022-09-09T05:34:41;98531.36;;;16.27;85.16
62436;BME280;48480;50.252;18.848;2022-09-09T05:37:07;98527.13;;;16.28;85.28
62436;BME280;48480;50.252;18.848;2022-09-09T05:39:34;98525.76;;;16.32;85.31
62436;BME280;48480;50.252;18.848;2022-09-09T05:42:03;98519.90;;;16.36;85.23
62436;BME280;48480;50.252;18.848;2022-09-09T05:44:30;98530.15;;;16.42;85.34
62436;BME280;48480;50.252;18.848;2022-09-09T05:46:57;98531.14;;;16.48;85.13
62436;BME280;48480;50.252;18.848;2022-09-09T05:49:24;98533.16;;;16.51;85.20
62436;BME280;48480;50.252;18.848;2022-09-09T05:51:51;98532.10;;;16.56;85.26
62436;BME280;48480;50.252;18.848;2022-09-09T05:54:18;98534.46;;;16.58;85.35
62436;BME280;48480;50.252;18.848;2022-09-09T05:56:44;98536.39;;;16.62;85.51
62436;BME280;48480;50.252;18.848;2022-09-09T05:59:11;98531.95;;;16.67;85.54
62436;BME280;48480;50.252;18.848;2022-09-09T06:01:38;98534.45;;;16.72;85.49
62436;BME280;48480;50.252;18.848;2022-09-09T06:04:06;98534.56;;;16.78;85.12
62436;BME280;48480;50.252;18.848;2022-09-09T06:06:36;98533.70;;;16.83;84.94
62436;BME280;48480;50.252;18.848;2022-09-09T06:09:04;98529.40;;;16.84;84.95
62436;BME280;48480;50.252;18.848;2022-09-09T06:11:39;98532.16;;;16.90;85.20
62436;BME280;48480;50.252;18.848;2022-09-09T06:14:07;98534.84;;;16.92;85.23
62436;BME280;48480;50.252;18.848;2022-09-09T06:16:34;98534.21;;;16.96;84.95
62436;BME280;48480;50.252;18.848;2022-09-09T06:19:01;98537.15;;;17.03;84.94
62436;BME280;48480;50.252;18.848;2022-09-09T06:21:36;98535.82;;;17.14;84.63
62436;BME280;48480;50.252;18.848;2022-09-09T06:24:06;98539.57;;;17.57;83.73
62436;BME280;48480;50.252;18.848;2022-09-09T06:26:38;98538.71;;;18.09;82.56
62436;BME280;48480;50.252;18.848;2022-09-09T06:29:07;98541.89;;;18.72;81.07
62436;BME280;48480;50.252;18.848;2022-09-09T06:31:35;98538.46;;;19.39;79.72
62436;BME280;48480;50.252;18.848;2022-09-09T06:34:07;98539.98;;;20.05;77.98
62436;BME280;48480;50.252;18.848;2022-09-09T06:36:34;98539.79;;;20.79;75.65
62436;BME280;48480;50.252;18.848;2022-09-09T06:39:03;98538.92;;;21.46;73.48
62436;BME280;48480;50.252;18.848;2022-09-09T06:41:31;98527.06;;;22.02;70.96
62436;BME280;48480;50.252;18.848;2022-09-09T06:43:59;98533.58;;;22.63;68.71
62436;BME280;48480;50.252;18.848;2022-09-09T06:46:27;98531.66;;;23.08;67.02
62436;BME280;48480;50.252;18.848;2022-09-09T06:48:55;98530.91;;;23.51;65.94
62436;BME280;48480;50.252;18.848;2022-09-09T06:51:33;98537.36;;;23.96;64.69
62436;BME280;48480;50.252;18.848;2022-09-09T06:54:01;98534.48;;;24.49;63.43
62436;BME280;48480;50.252;18.848;2022-09-09T06:56:35;98527.63;;;24.91;61.69
62436;BME280;48480;50.252;18.848;2022-09-09T06:59:06;98532.30;;;25.32;60.19
62436;BME280;48480;50.252;18.848;2022-09-09T07:01:36;98525.96;;;25.60;58.21
62436;BME280;48480;50.252;18.848;2022-09-09T07:04:04;98526.75;;;25.76;56.86
62436;BME280;48480;50.252;18.848;2022-09-09T07:06:35;98525.00;;;25.73;56.36
62436;BME280;48480;50.252;18.848;2022-09-09T07:09:04;98524.17;;;25.70;55.80
62436;BME280;48480;50.252;18.848;2022-09-09T07:11:36;98519.38;;;25.76;55.14
62436;BME280;48480;50.252;18.848;2022-09-09T07:14:04;98525.87;;;25.93;54.62
62436;BME280;48480;50.252;18.848;2022-09-09T07:16:30;98524.63;;;26.17;54.39
62436;BME280;48480;50.252;18.848;2022-09-09T07:18:59;98524.84;;;26.55;53.63
62436;BME280;48480;50.252;18.848;2022-09-09T07:21:27;98523.89;;;26.89;52.25
62436;BME280;48480;50.252;18.848;2022-09-09T07:23:55;98514.23;;;27.22;50.80
62436;BME280;48480;50.252;18.848;2022-09-09T07:26:26;98510.48;;;27.47;50.83
62436;BME280;48480;50.252;18.848;2022-09-09T07:28:54;98513.11;;;27.56;49.96
62436;BME280;48480;50.252;18.848;2022-09-09T07:31:25;98513.71;;;27.51;49.95
62436;BME280;48480;50.252;18.848;2022-09-09T07:33:52;98514.64;;;27.52;49.77
62436;BME280;48480;50.252;18.848;2022-09-09T07:36:23;98518.21;;;27.54;48.82
62436;BME280;48480;50.252;18.848;2022-09-09T07:38:52;98518.56;;;27.59;48.59
62436;BME280;48480;50.252;18.848;2022-09-09T07:41:23;98520.54;;;27.73;48.47
62436;BME280;48480;50.252;18.848;2022-09-09T07:43:50;98519.36;;;27.86;47.90
62436;BME280;48480;50.252;18.848;2022-09-09T07:46:19;98522.61;;;28.05;47.32
62436;BME280;48480;50.252;18.848;2022-09-09T07:48:54;98518.74;;;28.12;45.98
62436;BME280;48480;50.252;18.848;2022-09-09T07:51:31;98524.61;;;28.20;46.04
62436;BME280;48480;50.252;18.848;2022-09-09T07:59:59;98539.05;;;28.16;45.51
62436;BME280;48480;50.252;18.848;2022-09-09T08:02:32;98539.80;;;27.95;46.00
62436;BME280;48480;50.252;18.848;2022-09-09T08:04:58;98542.41;;;27.86;46.03
62436;BME280;48480;50.252;18.848;2022-09-09T08:07:25;98541.69;;;27.77;45.77
62436;BME280;48480;50.252;18.848;2022-09-09T08:09:52;98540.25;;;27.54;45.83
62436;BME280;48480;50.252;18.848;2022-09-09T08:12:20;98507.54;;;26.97;46.37
62436;BME280;48480;50.252;18.848;2022-09-09T08:14:47;98546.63;;;26.84;47.16
62436;BME280;48480;50.252;18.848;2022-09-09T08:17:14;98544.69;;;26.61;47.49
62436;BME280;48480;50.252;18.848;2022-09-09T08:19:41;98523.77;;;26.30;48.10
62436;BME280;48480;50.252;18.848;2022-09-09T08:22:08;98543.67;;;26.29;48.40
62436;BME280;48480;50.252;18.848;2022-09-09T08:24:35;98537.10;;;26.18;48.73
62436;BME280;48480;50.252;18.848;2022-09-09T08:27:02;98546.67;;;26.24;48.52
62436;BME280;48480;50.252;18.848;2022-09-09T08:29:29;98545.46;;;26.34;48.34
62436;BME280;48480;50.252;18.848;2022-09-09T08:31:57;98544.64;;;26.37;48.82
62436;BME280;48480;50.252;18.848;2022-09-09T08:34:25;98528.09;;;26.25;49.13
62436;BME280;48480;50.252;18.848;2022-09-09T08:36:54;98550.05;;;26.33;48.68
62436;BME280;48480;50.252;18.848;2022-09-09T08:39:22;98554.59;;;26.14;48.81
62436;BME280;48480;50.252;18.848;2022-09-09T08:47:42;98550.79;;;25.28;49.93
62436;BME280;48480;50.252;18.848;2022-09-09T08:53:01;98550.52;;;24.90;50.26
62436;BME280;48480;50.252;18.848;2022-09-09T08:58:30;98538.45;;;24.43;51.08
62436;BME280;48480;50.252;18.848;2022-09-09T09:04:04;98553.98;;;24.23;51.76
62436;BME280;48480;50.252;18.848;2022-09-09T09:09:38;98545.41;;;23.98;52.57
62436;BME280;48480;50.252;18.848;2022-09-09T09:12:19;98552.48;;;23.93;52.83
62436;BME280;48480;50.252;18.848;2022-09-09T09:14:55;98550.36;;;23.85;53.10
62436;BME280;48480;50.252;18.848;2022-09-09T09:17:25;98548.11;;;23.82;53.54
62436;BME280;48480;50.252;18.848;2022-09-09T09:19:59;98517.19;;;23.60;53.27
62436;BME280;48480;50.252;18.848;2022-09-09T09:25:39;98526.39;;;23.76;52.76
62436;BME280;48480;50.252;18.848;2022-09-09T09:28:24;98532.30;;;23.91;52.43
62436;BME280;48480;50.252;18.848;2022-09-09T09:31:04;98543.40;;;24.15;52.95
62436;BME280;48480;50.252;18.848;2022-09-09T09:33:52;98542.66;;;24.18;53.17
62436;BME280;48480;50.252;18.848;2022-09-09T09:36:41;98536.88;;;24.18;52.63
62436;BME280;48480;50.252;18.848;2022-09-09T09:39:08;98538.09;;;24.22;51.97
62436;BME280;48480;50.252;18.848;2022-09-09T09:41:38;98539.87;;;24.25;51.45
62436;BME280;48480;50.252;18.848;2022-09-09T09:44:40;98537.13;;;24.26;51.36
62436;BME280;48480;50.252;18.848;2022-09-09T09:47:22;98541.12;;;24.25;50.82
62436;BME280;48480;50.252;18.848;2022-09-09T09:49:55;98542.85;;;24.16;51.15
62436;BME280;48480;50.252;18.848;2022-09-09T09:52:41;98535.95;;;23.95;51.51
62436;BME280;48480;50.252;18.848;2022-09-09T09:55:15;98551.04;;;23.99;51.71
62436;BME280;48480;50.252;18.848;2022-09-09T09:57:52;98513.40;;;23.77;51.30
62436;BME280;48480;50.252;18.848;2022-09-09T10:00:22;98547.00;;;24.04;51.63
62436;BME280;48480;50.252;18.848;2022-09-09T10:03:01;98531.17;;;23.96;52.06
62436;BME280;48480;50.252;18.848;2022-09-09T10:05:31;98532.02;;;23.99;53.17
62436;BME280;48480;50.252;18.848;2022-09-09T10:08:13;98535.14;;;24.09;52.27
62436;BME280;48480;50.252;18.848;2022-09-09T10:19:35;98552.27;;;24.58;50.77
62436;BME280;48480;50.252;18.848;2022-09-09T10:22:26;98555.86;;;24.68;49.88
62436;BME280;48480;50.252;18.848;2022-09-09T10:33:12;98565.10;;;24.41;49.95
62436;BME280;48480;50.252;18.848;2022-09-09T10:36:13;98575.74;;;24.41;50.45
62436;BME280;48480;50.252;18.848;2022-09-09T10:38:53;98580.92;;;24.60;50.50
62436;BME280;48480;50.252;18.848;2022-09-09T10:47:10;98571.67;;;25.19;49.39
62436;BME280;48480;50.252;18.848;2022-09-09T10:49:57;98547.41;;;25.30;48.70
62436;BME280;48480;50.252;18.848;2022-09-09T10:55:13;98573.84;;;25.76;47.13
62436;BME280;48480;50.252;18.848;2022-09-09T10:57:50;98537.48;;;25.56;46.70
62436;BME280;48480;50.252;18.848;2022-09-09T11:00:21;98572.90;;;26.09;46.46
62436;BME280;48480;50.252;18.848;2022-09-09T11:02:57;98565.48;;;26.16;45.69
62436;BME280;48480;50.252;18.848;2022-09-09T11:05:41;98555.70;;;26.13;44.66
62436;BME280;48480;50.252;18.848;2022-09-09T11:08:24;98574.11;;;26.11;43.88
62436;BME280;48480;50.252;18.848;2022-09-09T11:11:04;98577.63;;;25.80;45.22
62436;BME280;48480;50.252;18.848;2022-09-09T11:13:58;98571.02;;;25.80;45.97
62436;BME280;48480;50.252;18.848;2022-09-09T11:16:46;98568.34;;;26.05;44.45
62436;BME280;48480;50.252;18.848;2022-09-09T11:19:34;98566.81;;;26.30;42.72
62436;BME280;48480;50.252;18.848;2022-09-09T11:22:14;98537.31;;;26.39;41.92
62436;BME280;48480;50.252;18.848;2022-09-09T11:24:56;98559.52;;;26.66;41.54
62436;BME280;48480;50.252;18.848;2022-09-09T11:27:33;98571.39;;;26.88;41.17
62436;BME280;48480;50.252;18.848;2022-09-09T11:30:19;98561.27;;;26.87;41.15
62436;BME280;48480;50.252;18.848;2022-09-09T11:40:33;98576.70;;;26.54;40.98
62436;BME280;48480;50.252;18.848;2022-09-09T11:45:37;98572.08;;;26.44;41.34
62436;BME280;48480;50.252;18.848;2022-09-09T11:48:31;98563.70;;;26.47;41.53
62436;BME280;48480;50.252;18.848;2022-09-09T11:51:05;98562.08;;;26.69;40.87
62436;BME280;48480;50.252;18.848;2022-09-09T11:53:35;98560.27;;;26.78;41.14
62436;BME280;48480;50.252;18.848;2022-09-09T11:56:25;98566.23;;;26.78;40.58
62436;BME280;48480;50.252;18.848;2022-09-09T12:01:29;98567.35;;;26.59;40.15
62436;BME280;48480;50.252;18.848;2022-09-09T12:06:51;98568.66;;;26.42;40.25
62436;BME280;48480;50.252;18.848;2022-09-09T12:09:39;98568.20;;;26.28;40.90
62436;BME280;48480;50.252;18.848;2022-09-09T12:17:15;98565.53;;;26.13;41.21
62436;BME280;48480;50.252;18.848;2022-09-09T12:19:44;98569.25;;;26.01;41.58
62436;BME280;48480;50.252;18.848;2022-09-09T12:25:41;98572.48;;;25.73;41.63
62436;BME280;48480;50.252;18.848;2022-09-09T12:30:49;98570.59;;;25.43;42.58
62436;BME280;48480;50.252;18.848;2022-09-09T12:33:19;98574.65;;;25.45;41.88
62436;BME280;48480;50.252;18.848;2022-09-09T12:35:51;98576.34;;;25.49;42.27
62436;BME280;48480;50.252;18.848;2022-09-09T12:38:39;98576.20;;;25.53;41.46
62436;BME280;48480;50.252;18.848;2022-09-09T12:41:22;98578.63;;;25.53;42.03
62436;BME280;48480;50.252;18.848;2022-09-09T12:44:02;98577.08;;;25.45;41.26
62436;BME280;48480;50.252;18.848;2022-09-09T12:46:38;98574.27;;;25.38;41.66
62436;BME280;48480;50.252;18.848;2022-09-09T12:49:34;98572.49;;;25.31;42.31
62436;BME280;48480;50.252;18.848;2022-09-09T12:52:30;98565.48;;;25.18;41.75
62436;BME280;48480;50.252;18.848;2022-09-09T12:55:04;98563.16;;;25.09;42.70
62436;BME280;48480;50.252;18.848;2022-09-09T12:57:37;98562.30;;;25.02;42.73
62436;BME280;48480;50.252;18.848;2022-09-09T13:00:14;98563.34;;;25.00;42.87
62436;BME280;48480;50.252;18.848;2022-09-09T13:02:58;98565.05;;;25.02;42.74
62436;BME280;48480;50.252;18.848;2022-09-09T13:05:36;98559.85;;;25.04;42.74
62436;BME280;48480;50.252;18.848;2022-09-09T13:08:05;98558.81;;;24.99;42.54
62436;BME280;48480;50.252;18.848;2022-09-09T13:10:43;98558.58;;;24.92;42.37
62436;BME280;48480;50.252;18.848;2022-09-09T13:13:17;98558.77;;;24.88;42.48
62436;BME280;48480;50.252;18.848;2022-09-09T13:15:56;98551.10;;;24.80;42.14
62436;BME280;48480;50.252;18.848;2022-09-09T13:18:30;98544.66;;;24.75;42.20
62436;BME280;48480;50.252;18.848;2022-09-09T13:21:02;98540.77;;;24.71;41.66
62436;BME280;48480;50.252;18.848;2022-09-09T13:23:32;98537.91;;;24.68;42.26
62436;BME280;48480;50.252;18.848;2022-09-09T13:26:01;98537.77;;;24.67;42.31
62436;BME280;48480;50.252;18.848;2022-09-09T13:28:30;98541.77;;;24.66;41.97
62436;BME280;48480;50.252;18.848;2022-09-09T13:30:58;98537.04;;;24.61;42.22
62436;BME280;48480;50.252;18.848;2022-09-09T13:33:37;98534.30;;;24.61;41.24
62436;BME280;48480;50.252;18.848;2022-09-09T13:36:09;98530.81;;;24.57;40.88
62436;BME280;48480;50.252;18.848;2022-09-09T13:38:57;98526.96;;;24.51;41.16
62436;BME280;48480;50.252;18.848;2022-09-09T13:41:31;98524.19;;;24.43;41.05
62436;BME280;48480;50.252;18.848;2022-09-09T13:43:59;98524.48;;;24.38;41.17
62436;BME280;48480;50.252;18.848;2022-09-09T13:49:22;98515.98;;;24.26;41.81
62436;BME280;48480;50.252;18.848;2022-09-09T13:51:51;98509.39;;;24.26;41.22
62436;BME280;48480;50.252;18.848;2022-09-09T13:54:20;98506.38;;;24.31;41.93
62436;BME280;48480;50.252;18.848;2022-09-09T13:56:47;98505.41;;;24.34;42.29
62436;BME280;48480;50.252;18.848;2022-09-09T13:59:18;98506.90;;;24.33;41.81
62436;BME280;48480;50.252;18.848;2022-09-09T14:01:50;98505.20;;;24.30;42.07
62436;BME280;48480;50.252;18.848;2022-09-09T14:04:19;98499.96;;;24.21;42.41
62436;BME280;48480;50.252;18.848;2022-09-09T14:06:50;98500.29;;;24.11;42.43
62436;BME280;48480;50.252;18.848;2022-09-09T14:09:17;98497.13;;;24.05;42.43
62436;BME280;48480;50.252;18.848;2022-09-09T14:11:44;98499.90;;;24.02;42.81
62436;BME280;48480;50.252;18.848;2022-09-09T14:14:14;98497.10;;;24.00;42.84
62436;BME280;48480;50.252;18.848;2022-09-09T14:16:41;98492.14;;;23.95;42.95
62436;BME280;48480;50.252;18.848;2022-09-09T14:19:09;98493.28;;;23.89;43.18
62436;BME280;48480;50.252;18.848;2022-09-09T14:21:36;98493.44;;;23.89;43.90
62436;BME280;48480;50.252;18.848;2022-09-09T14:24:02;98491.90;;;23.94;43.53
62436;BME280;48480;50.252;18.848;2022-09-09T14:26:29;98491.48;;;23.97;43.34
62436;BME280;48480;50.252;18.848;2022-09-09T14:28:56;98493.91;;;24.00;43.37
62436;BME280;48480;50.252;18.848;2022-09-09T14:31:23;98498.02;;;24.03;43.57
62436;BME280;48480;50.252;18.848;2022-09-09T14:33:50;98498.39;;;24.06;42.70
62436;BME280;48480;50.252;18.848;2022-09-09T14:36:17;98499.70;;;24.07;42.28
62436;BME280;48480;50.252;18.848;2022-09-09T14:38:44;98491.13;;;24.04;42.59
62436;BME280;48480;50.252;18.848;2022-09-09T14:41:18;98494.90;;;24.10;42.34
62436;BME280;48480;50.252;18.848;2022-09-09T14:43:46;98491.52;;;24.11;42.16
62436;BME280;48480;50.252;18.848;2022-09-09T14:46:15;98487.75;;;24.13;41.82
62436;BME280;48480;50.252;18.848;2022-09-09T14:48:42;98485.91;;;24.09;42.69
62436;BME280;48480;50.252;18.848;2022-09-09T14:51:24;98484.89;;;24.09;42.54
62436;BME280;48480;50.252;18.848;2022-09-09T14:53:52;98484.55;;;24.12;42.81
62436;BME280;48480;50.252;18.848;2022-09-09T14:56:21;98478.83;;;24.06;42.16
62436;BME280;48480;50.252;18.848;2022-09-09T14:58:49;98484.11;;;24.08;41.71
62436;BME280;48480;50.252;18.848;2022-09-09T15:01:19;98483.90;;;24.07;42.48
62436;BME280;48480;50.252;18.848;2022-09-09T15:03:52;98482.71;;;24.07;42.77
62436;BME280;48480;50.252;18.848;2022-09-09T15:06:20;98485.34;;;24.02;43.36
62436;BME280;48480;50.252;18.848;2022-09-09T15:08:47;98487.50;;;23.96;43.66
62436;BME280;48480;50.252;18.848;2022-09-09T15:11:14;98486.05;;;23.91;44.38